sensor_id;sensor_type;location;lat;lon;timestamp;pressure;altitude;pressure_sealevel;temperature;humidity
12973;BME280;6551;51.056;9.466;2023-08-21T00:01:26;98268.97;;;24.87;72.12
12973;BME280;6551;51.056;9.466;2023-08-21T00:03:53;98256.50;;;24.81;72.11
12973;BME280;6551;51.056;9.466;2023-08-21T00:06:20;98259.06;;;24.72;71.95
12973;BME280;6551;51.056;9.466;2023-08-21T00:08:45;98261.31;;;24.28;73.65
12973;BME280;6551;51.056;9.466;2023-08-21T00:11:13;98261.97;;;23.96;76.70
12973;BME280;6551;51.056;9.466;2023-08-21T00:13:42;98265.84;;;23.90;76.62
12973;BME280;6551;51.056;9.466;2023-08-21T00:16:11;98259.78;;;23.98;76.63
12973;BME280;6551;51.056;9.466;2023-08-21T00:18:38;98262.66;;;24.07;75.92
12973;BME280;6551;51.056;9.466;2023-08-21T00:21:03;98252.75;;;24.16;75.87
12973;BME280;6551;51.056;9.466;2023-08-21T00:23:30;98259.19;;;24.25;75.15
12973;BME280;6551;51.056;9.466;2023-08-21T00:25:57;98248.44;;;24.33;74.70
12973;BME280;6551;51.056;9.466;2023-08-21T00:28:24;98254.06;;;24.42;74.65
12973;BME280;6551;51.056;9.466;2023-08-21T00:30:50;98256.94;;;24.51;73.91
12973;BME280;6551;51.056;9.466;2023-08-21T00:33:18;98251.41;;;24.56;74.16
12973;BME280;6551;51.056;9.466;2023-08-21T00:35:44;98247.00;;;24.60;73.31
12973;BME280;6551;51.056;9.466;2023-08-21T00:38:09;98244.56;;;24.58;73.71
12973;BME280;6551;51.056;9.466;2023-08-21T00:40:37;98242.88;;;24.62;73.49
12973;BME280;6551;51.056;9.466;2023-08-21T00:43:03;98240.66;;;24.64;73.49
12973;BME280;6551;51.056;9.466;2023-08-21T00:45:31;98228.88;;;24.69;73.13
12973;BME280;6551;51.056;9.466;2023-08-21T00:47:58;98222.91;;;24.67;73.52
12973;BME280;6551;51.056;9.466;2023-08-21T00:50:25;98226.22;;;24.64;73.45
12973;BME280;6551;51.056;9.466;2023-08-21T00:52:52;98234.91;;;24.66;73.22
12973;BME280;6551;51.056;9.466;2023-08-21T00:55:19;98226.44;;;24.67;73.25
12973;BME280;6551;51.056;9.466;2023-08-21T00:57:45;98230.72;;;24.73;72.93
12973;BME280;6551;51.056;9.466;2023-08-21T01:00:13;98231.41;;;24.84;72.43
12973;BME280;6551;51.056;9.466;2023-08-21T01:02:42;98238.38;;;24.90;71.69
12973;BME280;6551;51.056;9.466;2023-08-21T01:05:08;98235.94;;;24.88;71.72
12973;BME280;6551;51.056;9.466;2023-08-21T01:07:45;98228.94;;;24.82;72.10
12973;BME280;6551;51.056;9.466;2023-08-21T01:10:30;98235.75;;;24.85;71.95
12973;BME280;6551;51.056;9.466;2023-08-21T01:13:28;98239.06;;;24.82;71.75
12973;BME280;6551;51.056;9.466;2023-08-21T01:15:59;98237.19;;;24.77;71.98
12973;BME280;6551;51.056;9.466;2023-08-21T01:18:26;98235.63;;;24.71;72.10
12973;BME280;6551;51.056;9.466;2023-08-21T01:20:55;98241.16;;;24.66;72.18
12973;BME280;6551;51.056;9.466;2023-08-21T01:23:36;98239.03;;;24.44;72.93
12973;BME280;6551;51.056;9.466;2023-08-21T01:26:05;98241.34;;;24.37;73.51
12973;BME280;6551;51.056;9.466;2023-08-21T01:28:33;98237.56;;;24.33;73.55
12973;BME280;6551;51.056;9.466;2023-08-21T01:31:28;98242.44;;;24.36;73.17
12973;BME280;6551;51.056;9.466;2023-08-21T01:34:02;98251.09;;;24.38;73.12
12973;BME280;6551;51.056;9.466;2023-08-21T01:36:31;98238.03;;;24.40;72.81
12973;BME280;6551;51.056;9.466;2023-08-21T01:38:57;98244.22;;;24.46;72.85
12973;BME280;6551;51.056;9.466;2023-08-21T01:41:24;98252.88;;;24.48;72.56
12973;BME280;6551;51.056;9.466;2023-08-21T01:43:50;98257.44;;;24.53;71.97
12973;BME280;6551;51.056;9.466;2023-08-21T01:46:17;98259.88;;;24.54;71.75
12973;BME280;6551;51.056;9.466;2023-08-21T01:48:44;98257.53;;;24.48;72.11
12973;BME280;6551;51.056;9.466;2023-08-21T01:51:11;98252.81;;;24.34;70.38
12973;BME280;6551;51.056;9.466;2023-08-21T01:53:37;98247.25;;;23.97;73.08
12973;BME280;6551;51.056;9.466;2023-08-21T01:56:04;98254.09;;;23.71;74.88
12973;BME280;6551;51.056;9.466;2023-08-21T01:58:31;98261.78;;;23.64;75.09
12973;BME280;6551;51.056;9.466;2023-08-21T02:00:57;98255.31;;;23.60;75.13
12973;BME280;6551;51.056;9.466;2023-08-21T02:03:26;98258.31;;;23.58;75.50
12973;BME280;6551;51.056;9.466;2023-08-21T02:05:56;98258.03;;;23.60;75.64
12973;BME280;6551;51.056;9.466;2023-08-21T02:08:34;98257.09;;;23.69;75.39
12973;BME280;6551;51.056;9.466;2023-08-21T02:11:02;98266.78;;;23.80;74.72
12973;BME280;6551;51.056;9.466;2023-08-21T02:13:28;98256.63;;;23.86;74.46
12973;BME280;6551;51.056;9.466;2023-08-21T02:15:55;98255.78;;;23.91;74.04
12973;BME280;6551;51.056;9.466;2023-08-21T02:18:22;98251.63;;;23.98;73.68
12973;BME280;6551;51.056;9.466;2023-08-21T02:20:49;98255.34;;;24.02;73.71
12973;BME280;6551;51.056;9.466;2023-08-21T02:23:16;98250.16;;;24.06;73.32
12973;BME280;6551;51.056;9.466;2023-08-21T02:25:42;98255.56;;;24.11;73.09
12973;BME280;6551;51.056;9.466;2023-08-21T02:28:08;98256.59;;;24.15;72.72
12973;BME280;6551;51.056;9.466;2023-08-21T02:30:35;98254.13;;;24.18;72.88
12973;BME280;6551;51.056;9.466;2023-08-21T02:33:00;98255.72;;;24.19;72.70
12973;BME280;6551;51.056;9.466;2023-08-21T02:35:27;98254.91;;;24.19;72.56
12973;BME280;6551;51.056;9.466;2023-08-21T02:37:54;98249.25;;;24.15;72.77
12973;BME280;6551;51.056;9.466;2023-08-21T02:40:21;98266.66;;;24.14;72.88
12973;BME280;6551;51.056;9.466;2023-08-21T02:42:47;98261.00;;;24.11;72.84
12973;BME280;6551;51.056;9.466;2023-08-21T02:45:14;98266.66;;;24.14;72.46
12973;BME280;6551;51.056;9.466;2023-08-21T02:47:43;98261.03;;;24.06;72.60
12973;BME280;6551;51.056;9.466;2023-08-21T02:50:10;98258.44;;;23.96;73.03
12973;BME280;6551;51.056;9.466;2023-08-21T02:52:37;98256.63;;;23.86;73.33
12973;BME280;6551;51.056;9.466;2023-08-21T02:55:05;98261.63;;;23.79;73.88
12973;BME280;6551;51.056;9.466;2023-08-21T02:57:32;98256.81;;;23.71;73.54
12973;BME280;6551;51.056;9.466;2023-08-21T02:59:59;98245.22;;;23.32;75.98
12973;BME280;6551;51.056;9.466;2023-08-21T03:02:26;98244.97;;;22.99;78.97
12973;BME280;6551;51.056;9.466;2023-08-21T03:04:52;98244.50;;;22.92;78.68
12973;BME280;6551;51.056;9.466;2023-08-21T03:07:19;98255.31;;;22.97;78.09
12973;BME280;6551;51.056;9.466;2023-08-21T03:09:48;98254.69;;;23.05;78.17
12973;BME280;6551;51.056;9.466;2023-08-21T03:12:16;98261.03;;;23.24;77.40
12973;BME280;6551;51.056;9.466;2023-08-21T03:14:43;98255.59;;;23.24;77.84
12973;BME280;6551;51.056;9.466;2023-08-21T03:17:09;98257.47;;;23.00;80.43
12973;BME280;6551;51.056;9.466;2023-08-21T03:19:36;98266.22;;;22.92;80.21
12973;BME280;6551;51.056;9.466;2023-08-21T03:22:01;98263.72;;;23.01;79.10
12973;BME280;6551;51.056;9.466;2023-08-21T03:24:29;98260.00;;;23.20;78.17
12973;BME280;6551;51.056;9.466;2023-08-21T03:26:56;98251.63;;;22.83;80.24
12973;BME280;6551;51.056;9.466;2023-08-21T03:29:23;98247.13;;;22.63;80.57
12973;BME280;6551;51.056;9.466;2023-08-21T03:31:54;98247.28;;;22.33;82.14
12973;BME280;6551;51.056;9.466;2023-08-21T03:34:21;98238.19;;;22.14;83.52
12973;BME280;6551;51.056;9.466;2023-08-21T03:36:47;98246.59;;;22.12;84.58
12973;BME280;6551;51.056;9.466;2023-08-21T03:39:14;98242.75;;;22.24;83.71
12973;BME280;6551;51.056;9.466;2023-08-21T03:41:41;98244.38;;;22.20;83.64
12973;BME280;6551;51.056;9.466;2023-08-21T03:44:07;98241.28;;;22.41;83.34
12973;BME280;6551;51.056;9.466;2023-08-21T03:46:34;98248.22;;;22.67;82.44
12973;BME280;6551;51.056;9.466;2023-08-21T03:49:01;98241.47;;;22.55;82.50
12973;BME280;6551;51.056;9.466;2023-08-21T03:51:28;98239.31;;;22.52;81.65
12973;BME280;6551;51.056;9.466;2023-08-21T03:53:54;98237.31;;;22.73;81.76
12973;BME280;6551;51.056;9.466;2023-08-21T03:56:20;98245.44;;;22.73;80.57
12973;BME280;6551;51.056;9.466;2023-08-21T03:58:48;98237.75;;;22.46;81.24
12973;BME280;6551;51.056;9.466;2023-08-21T04:01:15;98235.72;;;22.18;82.01
12973;BME280;6551;51.056;9.466;2023-08-21T04:03:41;98242.31;;;21.96;83.69
12973;BME280;6551;51.056;9.466;2023-08-21T04:06:07;98240.69;;;22.00;84.84
12973;BME280;6551;51.056;9.466;2023-08-21T04:08:33;98240.50;;;22.36;84.35
12973;BME280;6551;51.056;9.466;2023-08-21T04:11:01;98248.69;;;22.26;83.71
12973;BME280;6551;51.056;9.466;2023-08-21T04:13:28;98250.22;;;22.42;83.03
12973;BME280;6551;51.056;9.466;2023-08-21T04:15:55;98257.19;;;22.58;81.78
12973;BME280;6551;51.056;9.466;2023-08-21T04:18:23;98251.44;;;22.69;80.64
12973;BME280;6551;51.056;9.466;2023-08-21T04:20:50;98253.94;;;22.56;80.43
12973;BME280;6551;51.056;9.466;2023-08-21T04:23:17;98259.16;;;22.47;81.76
12973;BME280;6551;51.056;9.466;2023-08-21T04:25:43;98258.59;;;22.50;81.78
12973;BME280;6551;51.056;9.466;2023-08-21T04:28:09;98256.75;;;22.46;82.42
12973;BME280;6551;51.056;9.466;2023-08-21T04:30:35;98254.03;;;22.46;81.84
12973;BME280;6551;51.056;9.466;2023-08-21T04:33:01;98264.50;;;22.57;81.12
12973;BME280;6551;51.056;9.466;2023-08-21T04:35:28;98267.44;;;22.76;80.31
12973;BME280;6551;51.056;9.466;2023-08-21T04:37:57;98261.88;;;22.91;79.22
12973;BME280;6551;51.056;9.466;2023-08-21T04:40:25;98259.88;;;23.02;78.46
12973;BME280;6551;51.056;9.466;2023-08-21T04:42:52;98258.44;;;23.14;77.80
12973;BME280;6551;51.056;9.466;2023-08-21T04:45:19;98259.44;;;23.23;77.36
12973;BME280;6551;51.056;9.466;2023-08-21T04:47:46;98254.22;;;23.27;76.86
12973;BME280;6551;51.056;9.466;2023-08-21T04:50:13;98247.94;;;23.32;76.72
12973;BME280;6551;51.056;9.466;2023-08-21T04:52:40;98254.69;;;23.39;76.24
12973;BME280;6551;51.056;9.466;2023-08-21T04:55:06;98258.19;;;23.45;76.25
12973;BME280;6551;51.056;9.466;2023-08-21T04:57:33;98255.34;;;23.55;75.46
12973;BME280;6551;51.056;9.466;2023-08-21T04:59:59;98265.31;;;23.64;75.06
12973;BME280;6551;51.056;9.466;2023-08-21T05:02:26;98260.06;;;23.73;74.63
12973;BME280;6551;51.056;9.466;2023-08-21T05:04:52;98262.44;;;23.79;74.27
12973;BME280;6551;51.056;9.466;2023-08-21T05:07:19;98263.94;;;23.67;74.36
12973;BME280;6551;51.056;9.466;2023-08-21T05:09:46;98265.13;;;23.56;75.18
12973;BME280;6551;51.056;9.466;2023-08-21T05:12:13;98261.09;;;23.53;75.03
12973;BME280;6551;51.056;9.466;2023-08-21T05:14:40;98254.00;;;23.52;74.83
12973;BME280;6551;51.056;9.466;2023-08-21T05:17:06;98259.25;;;23.49;75.14
12973;BME280;6551;51.056;9.466;2023-08-21T05:19:33;98271.19;;;23.48;74.77
12973;BME280;6551;51.056;9.466;2023-08-21T05:21:59;98261.47;;;23.42;75.52
12973;BME280;6551;51.056;9.466;2023-08-21T05:24:25;98262.53;;;23.46;75.18
12973;BME280;6551;51.056;9.466;2023-08-21T05:26:52;98264.06;;;23.57;75.53
12973;BME280;6551;51.056;9.466;2023-08-21T05:29:19;98268.09;;;23.83;74.60
12973;BME280;6551;51.056;9.466;2023-08-21T05:31:46;98266.84;;;24.23;73.31
12973;BME280;6551;51.056;9.466;2023-08-21T05:34:13;98268.94;;;24.68;71.85
12973;BME280;6551;51.056;9.466;2023-08-21T05:36:39;98274.00;;;25.12;70.34
12973;BME280;6551;51.056;9.466;2023-08-21T05:39:07;98266.66;;;25.58;69.05
12973;BME280;6551;51.056;9.466;2023-08-21T05:41:35;98271.53;;;26.02;67.83
12973;BME280;6551;51.056;9.466;2023-08-21T05:44:01;98271.22;;;26.45;66.04
12973;BME280;6551;51.056;9.466;2023-08-21T05:46:29;98271.84;;;26.78;65.64
12973;BME280;6551;51.056;9.466;2023-08-21T05:48:54;98281.94;;;27.04;64.86
12973;BME280;6551;51.056;9.466;2023-08-21T05:51:21;98279.81;;;27.23;64.27
12973;BME280;6551;51.056;9.466;2023-08-21T05:53:47;98281.47;;;27.33;63.90
12973;BME280;6551;51.056;9.466;2023-08-21T05:56:13;98280.03;;;27.58;63.03
12973;BME280;6551;51.056;9.466;2023-08-21T05:58:40;98280.78;;;27.80;63.11
12973;BME280;6551;51.056;9.466;2023-08-21T06:01:05;98283.03;;;28.09;62.99
12973;BME280;6551;51.056;9.466;2023-08-21T06:03:32;98288.44;;;28.40;61.96
12973;BME280;6551;51.056;9.466;2023-08-21T06:05:59;98285.75;;;28.57;61.95
12973;BME280;6551;51.056;9.466;2023-08-21T06:08:26;98278.84;;;28.77;60.78
12973;BME280;6551;51.056;9.466;2023-08-21T06:10:53;98282.88;;;29.05;59.90
12973;BME280;6551;51.056;9.466;2023-08-21T06:13:20;98285.44;;;29.10;58.94
12973;BME280;6551;51.056;9.466;2023-08-21T06:15:45;98282.88;;;29.39;58.10
12973;BME280;6551;51.056;9.466;2023-08-21T06:18:11;98284.56;;;29.70;57.50
12973;BME280;6551;51.056;9.466;2023-08-21T06:20:38;98289.50;;;29.93;56.89
12973;BME280;6551;51.056;9.466;2023-08-21T06:23:04;98294.94;;;30.10;55.60
12973;BME280;6551;51.056;9.466;2023-08-21T06:25:33;98287.31;;;30.16;55.23
12973;BME280;6551;51.056;9.466;2023-08-21T06:27:59;98277.72;;;30.31;55.41
12973;BME280;6551;51.056;9.466;2023-08-21T06:30:27;98291.69;;;30.46;54.01
12973;BME280;6551;51.056;9.466;2023-08-21T06:32:53;98283.13;;;30.48;54.50
12973;BME280;6551;51.056;9.466;2023-08-21T06:35:20;98290.91;;;30.46;54.39
12973;BME280;6551;51.056;9.466;2023-08-21T06:37:46;98282.59;;;30.54;54.69
12973;BME280;6551;51.056;9.466;2023-08-21T06:40:13;98281.25;;;30.60;54.16
12973;BME280;6551;51.056;9.466;2023-08-21T06:42:40;98282.41;;;30.59;53.69
12973;BME280;6551;51.056;9.466;2023-08-21T06:45:06;98278.09;;;30.50;53.82
12973;BME280;6551;51.056;9.466;2023-08-21T06:47:33;98285.09;;;30.68;53.56
12973;BME280;6551;51.056;9.466;2023-08-21T06:50:00;98277.94;;;30.96;53.26
12973;BME280;6551;51.056;9.466;2023-08-21T06:52:27;98291.03;;;31.20;52.85
12973;BME280;6551;51.056;9.466;2023-08-21T06:54:53;98286.22;;;31.50;51.67
12973;BME280;6551;51.056;9.466;2023-08-21T06:57:20;98287.53;;;31.64;51.70
12973;BME280;6551;51.056;9.466;2023-08-21T06:59:46;98286.06;;;31.91;51.40
12973;BME280;6551;51.056;9.466;2023-08-21T07:02:12;98299.66;;;32.08;50.61
12973;BME280;6551;51.056;9.466;2023-08-21T07:04:39;98293.81;;;32.34;50.38
12973;BME280;6551;51.056;9.466;2023-08-21T07:07:05;98300.03;;;32.67;49.79
12973;BME280;6551;51.056;9.466;2023-08-21T07:09:32;98293.34;;;32.68;49.55
12973;BME280;6551;51.056;9.466;2023-08-21T07:11:59;98296.78;;;32.77;48.96
12973;BME280;6551;51.056;9.466;2023-08-21T07:14:26;98292.97;;;32.82;49.10
12973;BME280;6551;51.056;9.466;2023-08-21T07:16:51;98284.78;;;32.85;49.91
12973;BME280;6551;51.056;9.466;2023-08-21T07:19:19;98297.06;;;33.00;49.02
12973;BME280;6551;51.056;9.466;2023-08-21T07:21:44;98288.81;;;32.88;47.94
12973;BME280;6551;51.056;9.466;2023-08-21T07:24:12;98285.94;;;33.24;49.17
12973;BME280;6551;51.056;9.466;2023-08-21T07:26:39;98289.38;;;33.33;48.23
12973;BME280;6551;51.056;9.466;2023-08-21T07:29:05;98286.78;;;33.40;48.32
12973;BME280;6551;51.056;9.466;2023-08-21T07:31:32;98293.03;;;33.65;47.88
12973;BME280;6551;51.056;9.466;2023-08-21T07:33:59;98286.38;;;33.97;47.01
12973;BME280;6551;51.056;9.466;2023-08-21T07:36:26;98297.06;;;33.68;47.52
12973;BME280;6551;51.056;9.466;2023-08-21T07:38:52;98289.75;;;33.47;48.68
12973;BME280;6551;51.056;9.466;2023-08-21T07:41:19;98297.78;;;33.52;47.99
12973;BME280;6551;51.056;9.466;2023-08-21T07:43:45;98295.72;;;33.62;48.21
12973;BME280;6551;51.056;9.466;2023-08-21T07:46:12;98296.97;;;33.52;48.44
12973;BME280;6551;51.056;9.466;2023-08-21T07:48:44;98301.06;;;33.70;48.81
12973;BME280;6551;51.056;9.466;2023-08-21T07:51:10;98296.63;;;33.81;47.91
12973;BME280;6551;51.056;9.466;2023-08-21T07:53:37;98299.44;;;33.69;48.98
12973;BME280;6551;51.056;9.466;2023-08-21T07:56:04;98298.94;;;33.51;48.79
12973;BME280;6551;51.056;9.466;2023-08-21T07:58:32;98300.53;;;33.65;49.20
12973;BME280;6551;51.056;9.466;2023-08-21T08:01:01;98290.81;;;33.86;48.03
12973;BME280;6551;51.056;9.466;2023-08-21T08:03:28;98293.50;;;33.83;48.18
12973;BME280;6551;51.056;9.466;2023-08-21T08:05:54;98295.97;;;33.72;49.12
12973;BME280;6551;51.056;9.466;2023-08-21T08:08:20;98287.91;;;33.79;48.14
12973;BME280;6551;51.056;9.466;2023-08-21T08:10:46;98291.38;;;33.76;48.28
12973;BME280;6551;51.056;9.466;2023-08-21T08:13:13;98285.03;;;33.91;47.99
12973;BME280;6551;51.056;9.466;2023-08-21T08:15:40;98284.22;;;33.91;49.17
12973;BME280;6551;51.056;9.466;2023-08-21T08:18:11;98282.09;;;34.00;48.54
12973;BME280;6551;51.056;9.466;2023-08-21T08:20:38;98284.09;;;34.15;49.02
12973;BME280;6551;51.056;9.466;2023-08-21T08:23:04;98284.94;;;34.03;48.67
12973;BME280;6551;51.056;9.466;2023-08-21T08:25:31;98284.94;;;34.03;49.26
12973;BME280;6551;51.056;9.466;2023-08-21T08:27:59;98281.47;;;34.22;49.07
12973;BME280;6551;51.056;9.466;2023-08-21T08:30:25;98286.44;;;34.48;48.85
12973;BME280;6551;51.056;9.466;2023-08-21T08:32:51;98280.41;;;34.77;48.04
12973;BME280;6551;51.056;9.466;2023-08-21T08:35:19;98280.19;;;34.86;47.39
12973;BME280;6551;51.056;9.466;2023-08-21T08:37:45;98278.28;;;35.24;47.26
12973;BME280;6551;51.056;9.466;2023-08-21T08:40:13;98276.97;;;35.57;46.62
12973;BME280;6551;51.056;9.466;2023-08-21T08:42:39;98279.72;;;35.79;44.99
12973;BME280;6551;51.056;9.466;2023-08-21T08:45:06;98281.69;;;36.02;44.62
12973;BME280;6551;51.056;9.466;2023-08-21T08:47:34;98271.31;;;35.95;44.63
12973;BME280;6551;51.056;9.466;2023-08-21T08:50:05;98271.81;;;36.23;44.88
12973;BME280;6551;51.056;9.466;2023-08-21T08:52:38;98282.94;;;36.50;45.04
12973;BME280;6551;51.056;9.466;2023-08-21T08:55:05;98276.56;;;36.75;44.25
12973;BME280;6551;51.056;9.466;2023-08-21T08:57:36;98285.31;;;37.07;43.56
12973;BME280;6551;51.056;9.466;2023-08-21T09:00:03;98270.72;;;36.84;43.20
12973;BME280;6551;51.056;9.466;2023-08-21T09:02:31;98273.44;;;36.80;43.24
12973;BME280;6551;51.056;9.466;2023-08-21T09:04:57;98268.94;;;36.43;44.87
12973;BME280;6551;51.056;9.466;2023-08-21T09:07:23;98276.66;;;36.07;44.62
12973;BME280;6551;51.056;9.466;2023-08-21T09:09:49;98275.19;;;36.13;46.43
12973;BME280;6551;51.056;9.466;2023-08-21T09:12:17;98276.06;;;36.44;45.10
12973;BME280;6551;51.056;9.466;2023-08-21T09:14:44;98273.84;;;36.79;44.11
12973;BME280;6551;51.056;9.466;2023-08-21T09:17:10;98269.13;;;37.13;43.64
12973;BME280;6551;51.056;9.466;2023-08-21T09:19:37;98262.94;;;37.60;43.03
12973;BME280;6551;51.056;9.466;2023-08-21T09:22:16;98268.00;;;37.87;42.84
12973;BME280;6551;51.056;9.466;2023-08-21T09:25:19;98269.78;;;37.69;42.60
12973;BME280;6551;51.056;9.466;2023-08-21T09:27:45;98270.63;;;37.73;43.11
12973;BME280;6551;51.056;9.466;2023-08-21T09:30:11;98262.66;;;38.12;42.05
12973;BME280;6551;51.056;9.466;2023-08-21T09:32:59;98259.44;;;37.33;42.90
12973;BME280;6551;51.056;9.466;2023-08-21T09:35:32;98262.41;;;36.84;43.45
12973;BME280;6551;51.056;9.466;2023-08-21T09:38:00;98267.13;;;36.05;44.94
12973;BME280;6551;51.056;9.466;2023-08-21T09:40:27;98262.34;;;35.60;46.73
12973;BME280;6551;51.056;9.466;2023-08-21T09:42:56;98265.44;;;35.36;46.67
12973;BME280;6551;51.056;9.466;2023-08-21T09:45:24;98264.59;;;35.73;46.51
12973;BME280;6551;51.056;9.466;2023-08-21T09:47:52;98259.66;;;35.63;45.97
12973;BME280;6551;51.056;9.466;2023-08-21T09:50:19;98264.47;;;35.89;45.16
12973;BME280;6551;51.056;9.466;2023-08-21T09:52:46;98271.34;;;36.21;46.47
12973;BME280;6551;51.056;9.466;2023-08-21T09:55:16;98262.41;;;36.58;43.77
12973;BME280;6551;51.056;9.466;2023-08-21T09:57:41;98253.75;;;36.63;43.54
12973;BME280;6551;51.056;9.466;2023-08-21T10:00:08;98250.75;;;36.75;43.00
12973;BME280;6551;51.056;9.466;2023-08-21T10:02:50;98253.03;;;36.96;42.78
12973;BME280;6551;51.056;9.466;2023-08-21T10:05:18;98246.41;;;37.04;42.91
12973;BME280;6551;51.056;9.466;2023-08-21T10:07:49;98251.41;;;36.94;43.22
12973;BME280;6551;51.056;9.466;2023-08-21T10:10:17;98247.31;;;36.55;43.17
12973;BME280;6551;51.056;9.466;2023-08-21T10:12:44;98240.31;;;35.90;44.43
12973;BME280;6551;51.056;9.466;2023-08-21T10:15:10;98251.81;;;35.27;46.16
12973;BME280;6551;51.056;9.466;2023-08-21T10:17:38;98243.69;;;34.99;46.19
12973;BME280;6551;51.056;9.466;2023-08-21T10:20:08;98241.44;;;35.05;46.97
12973;BME280;6551;51.056;9.466;2023-08-21T10:22:49;98240.34;;;35.48;46.34
12973;BME280;6551;51.056;9.466;2023-08-21T10:25:25;98245.16;;;35.96;45.39
12973;BME280;6551;51.056;9.466;2023-08-21T10:27:58;98242.28;;;36.38;46.18
12973;BME280;6551;51.056;9.466;2023-08-21T10:30:27;98240.31;;;36.94;44.07
12973;BME280;6551;51.056;9.466;2023-08-21T10:32:58;98233.53;;;37.22;41.43
12973;BME280;6551;51.056;9.466;2023-08-21T10:35:30;98228.47;;;37.68;40.27
12973;BME280;6551;51.056;9.466;2023-08-21T10:38:12;98230.13;;;37.79;39.39
12973;BME280;6551;51.056;9.466;2023-08-21T10:43:43;98231.22;;;37.64;37.85
12973;BME280;6551;51.056;9.466;2023-08-21T10:46:10;98227.44;;;37.46;37.67
12973;BME280;6551;51.056;9.466;2023-08-21T10:48:38;98223.66;;;37.28;38.64
12973;BME280;6551;51.056;9.466;2023-08-21T10:51:06;98224.84;;;37.27;38.24
12973;BME280;6551;51.056;9.466;2023-08-21T10:53:35;98230.16;;;36.76;39.42
12973;BME280;6551;51.056;9.466;2023-08-21T10:56:06;98227.84;;;36.52;40.45
12973;BME280;6551;51.056;9.466;2023-08-21T10:58:44;98233.78;;;36.50;40.20
12973;BME280;6551;51.056;9.466;2023-08-21T11:01:16;98228.50;;;36.15;40.03
12973;BME280;6551;51.056;9.466;2023-08-21T11:03:46;98228.66;;;36.26;39.71
12973;BME280;6551;51.056;9.466;2023-08-21T11:06:19;98221.59;;;36.58;39.47
12973;BME280;6551;51.056;9.466;2023-08-21T11:08:44;98222.97;;;36.45;39.76
12973;BME280;6551;51.056;9.466;2023-08-21T11:11:11;98219.56;;;36.29;39.54
12973;BME280;6551;51.056;9.466;2023-08-21T11:13:38;98220.91;;;36.12;39.75
12973;BME280;6551;51.056;9.466;2023-08-21T11:16:05;98228.41;;;36.12;38.53
12973;BME280;6551;51.056;9.466;2023-08-21T11:18:37;98228.16;;;36.20;38.29
12973;BME280;6551;51.056;9.466;2023-08-21T11:21:11;98225.97;;;36.33;38.30
12973;BME280;6551;51.056;9.466;2023-08-21T11:23:40;98225.81;;;36.49;37.21
12973;BME280;6551;51.056;9.466;2023-08-21T11:26:11;98228.75;;;36.59;38.02
12973;BME280;6551;51.056;9.466;2023-08-21T11:28:38;98223.88;;;36.79;38.77
12973;BME280;6551;51.056;9.466;2023-08-21T11:31:06;98223.50;;;37.14;38.97
12973;BME280;6551;51.056;9.466;2023-08-21T11:33:32;98221.97;;;37.53;37.21
12973;BME280;6551;51.056;9.466;2023-08-21T11:36:00;98224.84;;;37.27;37.75
12973;BME280;6551;51.056;9.466;2023-08-21T11:38:27;98216.78;;;37.52;38.05
12973;BME280;6551;51.056;9.466;2023-08-21T11:41:00;98211.63;;;37.50;37.13
12973;BME280;6551;51.056;9.466;2023-08-21T11:43:44;98211.25;;;36.29;39.21
12973;BME280;6551;51.056;9.466;2023-08-21T11:46:10;98219.47;;;35.54;40.26
12973;BME280;6551;51.056;9.466;2023-08-21T11:48:41;98210.13;;;35.20;40.43
12973;BME280;6551;51.056;9.466;2023-08-21T11:51:08;98209.09;;;35.28;41.44
12973;BME280;6551;51.056;9.466;2023-08-21T11:53:42;98204.16;;;35.18;41.17
12973;BME280;6551;51.056;9.466;2023-08-21T11:56:19;98201.31;;;34.76;41.17
12973;BME280;6551;51.056;9.466;2023-08-21T11:58:46;98207.03;;;34.48;40.61
12973;BME280;6551;51.056;9.466;2023-08-21T12:01:23;98214.09;;;34.30;42.34
12973;BME280;6551;51.056;9.466;2023-08-21T12:03:48;98197.88;;;34.29;42.67
12973;BME280;6551;51.056;9.466;2023-08-21T12:06:22;98201.53;;;34.52;43.10
12973;BME280;6551;51.056;9.466;2023-08-21T12:08:49;98205.28;;;34.40;42.06
12973;BME280;6551;51.056;9.466;2023-08-21T12:11:18;98206.28;;;34.17;42.81
12973;BME280;6551;51.056;9.466;2023-08-21T12:13:43;98205.19;;;34.21;42.94
12973;BME280;6551;51.056;9.466;2023-08-21T12:16:09;98192.22;;;33.90;42.95
12973;BME280;6551;51.056;9.466;2023-08-21T12:18:36;98196.66;;;33.95;42.86
12973;BME280;6551;51.056;9.466;2023-08-21T12:21:03;98198.56;;;33.60;43.79
12973;BME280;6551;51.056;9.466;2023-08-21T12:23:30;98197.50;;;33.64;43.90
12973;BME280;6551;51.056;9.466;2023-08-21T12:25:59;98203.66;;;33.73;43.42
12973;BME280;6551;51.056;9.466;2023-08-21T12:28:26;98198.34;;;33.52;42.98
12973;BME280;6551;51.056;9.466;2023-08-21T12:30:53;98196.56;;;33.01;44.77
12973;BME280;6551;51.056;9.466;2023-08-21T12:33:20;98191.72;;;32.70;45.57
12973;BME280;6551;51.056;9.466;2023-08-21T12:35:45;98196.47;;;32.58;46.42
12973;BME280;6551;51.056;9.466;2023-08-21T12:38:12;98199.03;;;32.38;46.60
12973;BME280;6551;51.056;9.466;2023-08-21T12:40:40;98196.84;;;32.56;46.69
12973;BME280;6551;51.056;9.466;2023-08-21T12:43:05;98196.69;;;32.53;46.73
12973;BME280;6551;51.056;9.466;2023-08-21T12:45:32;98186.81;;;32.64;46.97
12973;BME280;6551;51.056;9.466;2023-08-21T12:47:59;98191.34;;;32.84;46.88
12973;BME280;6551;51.056;9.466;2023-08-21T12:50:25;98195.81;;;33.16;46.57
12973;BME280;6551;51.056;9.466;2023-08-21T12:52:51;98184.75;;;33.16;45.26
12973;BME280;6551;51.056;9.466;2023-08-21T12:55:18;98187.28;;;33.37;44.62
12973;BME280;6551;51.056;9.466;2023-08-21T12:57:46;98175.22;;;33.14;44.77
12973;BME280;6551;51.056;9.466;2023-08-21T13:00:12;98179.22;;;33.16;45.36
12973;BME280;6551;51.056;9.466;2023-08-21T13:02:40;98173.59;;;32.85;45.61
12973;BME280;6551;51.056;9.466;2023-08-21T13:05:06;98183.44;;;32.98;46.74
12973;BME280;6551;51.056;9.466;2023-08-21T13:07:34;98170.63;;;33.18;48.05
12973;BME280;6551;51.056;9.466;2023-08-21T13:09:59;98177.31;;;33.48;47.66
12973;BME280;6551;51.056;9.466;2023-08-21T13:12:26;98186.97;;;33.70;46.75
12973;BME280;6551;51.056;9.466;2023-08-21T13:14:54;98177.69;;;33.78;47.94
12973;BME280;6551;51.056;9.466;2023-08-21T13:17:21;98172.88;;;33.75;46.74